createdAt,value
2017-12-29T00:01:37.152Z,2.10
2017-12-29T00:04:12.702Z,2.20
2017-12-29T00:06:49.730Z,2.20
2017-12-29T00:09:30.819Z,2.00
2017-12-29T00:11:58.392Z,2.00
2017-12-29T00:14:25.324Z,2.00
2017-12-29T00:16:52.217Z,2.00
2017-12-29T00:19:19.142Z,2.00
2017-12-29T00:21:46.023Z,2.20
2017-12-29T00:24:12.989Z,2.20
2017-12-29T00:26:39.871Z,2.20
2017-12-29T00:29:06.720Z,2.20
2017-12-29T00:31:33.649Z,2.20
2017-12-29T00:34:00.634Z,2.30
2017-12-29T00:36:27.508Z,2.40
2017-12-29T00:38:54.379Z,2.40
2017-12-29T00:41:21.312Z,2.30
2017-12-29T00:43:48.175Z,2.40
2017-12-29T00:46:15.833Z,2.30
2017-12-29T00:48:42.707Z,2.30
2017-12-29T00:51:09.587Z,2.40
2017-12-29T00:53:36.524Z,2.50
2017-12-29T00:56:03.525Z,2.40
2017-12-29T00:58:31.146Z,2.30
2017-12-29T01:00:58.079Z,2.20
2017-12-29T01:03:25.021Z,2.30
2017-12-29T01:05:51.947Z,2.20
2017-12-29T01:08:19.559Z,2.20
2017-12-29T01:10:46.499Z,2.20
2017-12-29T01:13:13.445Z,2.10
2017-12-29T01:15:40.404Z,1.90
2017-12-29T01:18:07.263Z,2.00
2017-12-29T01:20:34.142Z,1.90
2017-12-29T01:23:01.096Z,2.00
2017-12-29T01:25:27.959Z,2.00
2017-12-29T01:27:54.846Z,2.10
2017-12-29T01:30:21.792Z,2.10
2017-12-29T01:32:48.744Z,2.00
2017-12-29T01:35:15.610Z,2.00
2017-12-29T01:37:42.459Z,2.00
2017-12-29T01:40:09.404Z,2.10
2017-12-29T01:42:36.338Z,2.00
2017-12-29T01:45:04.854Z,2.10
2017-12-29T01:47:43.881Z,2.00
2017-12-29T01:50:10.751Z,2.00
2017-12-29T01:52:37.611Z,2.00
2017-12-29T01:55:04.543Z,1.80
2017-12-29T01:57:31.479Z,1.90
2017-12-29T01:59:58.417Z,1.90
2017-12-29T02:02:25.309Z,2.10
2017-12-29T02:04:52.184Z,2.20
2017-12-29T02:07:19.113Z,2.20
2017-12-29T02:09:46.840Z,2.30
2017-12-29T02:12:26.741Z,2.30
2017-12-29T02:14:54.547Z,2.20
2017-12-29T02:17:21.419Z,2.20
2017-12-29T02:19:48.290Z,2.10
2017-12-29T02:22:15.997Z,2.00
2017-12-29T02:24:42.864Z,2.00
2017-12-29T02:27:09.736Z,2.00
2017-12-29T02:29:37.466Z,1.90
2017-12-29T02:32:04.404Z,1.90
2017-12-29T02:34:31.321Z,1.80
2017-12-29T02:36:58.253Z,1.90
2017-12-29T02:39:25.189Z,1.90
2017-12-29T02:41:52.826Z,2.00
2017-12-29T02:44:19.773Z,1.90
2017-12-29T02:46:46.703Z,2.00
2017-12-29T02:49:13.627Z,2.00
2017-12-29T02:51:40.508Z,2.00
2017-12-29T02:54:07.467Z,1.90
2017-12-29T02:56:34.328Z,1.80
2017-12-29T02:59:01.935Z,1.70
2017-12-29T03:01:28.858Z,1.70
2017-12-29T03:03:56.097Z,1.70
2017-12-29T03:06:23.109Z,1.70
2017-12-29T03:08:49.963Z,1.70
2017-12-29T03:11:16.836Z,1.70
2017-12-29T03:13:43.805Z,1.70
2017-12-29T03:16:10.659Z,1.60
2017-12-29T03:18:37.544Z,1.60
2017-12-29T03:21:05.210Z,1.60
2017-12-29T03:23:32.891Z,1.60
2017-12-29T03:25:59.767Z,1.60
2017-12-29T03:28:26.719Z,1.60
2017-12-29T03:30:53.685Z,1.60
2017-12-29T03:33:20.555Z,1.50
2017-12-29T03:35:48.151Z,1.40
2017-12-29T03:38:15.092Z,1.50
2017-12-29T03:40:42.010Z,1.50
2017-12-29T03:43:09.692Z,1.50
2017-12-29T03:45:37.296Z,1.60
2017-12-29T03:48:04.182Z,1.50
2017-12-29T03:50:31.846Z,1.40
2017-12-29T03:52:59.455Z,1.40
2017-12-29T03:55:26.386Z,1.40
2017-12-29T03:57:53.303Z,1.40
2017-12-29T04:00:20.963Z,1.40
2017-12-29T04:02:47.937Z,1.40
2017-12-29T04:05:14.820Z,1.50
2017-12-29T04:07:41.732Z,1.40
2017-12-29T04:10:08.611Z,1.50
2017-12-29T04:12:35.567Z,1.40
2017-12-29T04:15:02.447Z,1.30
2017-12-29T04:17:30.128Z,1.30
2017-12-29T04:19:57.004Z,1.30
2017-12-29T04:22:23.934Z,1.30
2017-12-29T04:24:50.853Z,1.30
2017-12-29T04:27:17.714Z,1.10
2017-12-29T04:29:44.631Z,1.30
2017-12-29T04:32:12.243Z,1.30
2017-12-29T04:34:39.171Z,1.20
2017-12-29T04:37:06.136Z,1.10
2017-12-29T04:39:33.119Z,1.30
2017-12-29T04:41:59.971Z,1.20
2017-12-29T04:44:27.628Z,1.40
2017-12-29T04:46:54.542Z,1.40
2017-12-29T04:49:21.466Z,1.30
2017-12-29T04:51:48.390Z,1.40
2017-12-29T04:54:15.271Z,1.30
2017-12-29T04:56:42.190Z,1.40
2017-12-29T04:59:09.063Z,1.30
2017-12-29T05:01:35.911Z,1.40
2017-12-29T05:04:02.844Z,1.40
2017-12-29T05:06:29.754Z,1.40
2017-12-29T05:09:13.089Z,1.40
2017-12-29T05:11:40.751Z,1.40
2017-12-29T05:14:07.635Z,1.50
2017-12-29T05:16:34.584Z,1.60
2017-12-29T05:19:02.246Z,1.70
2017-12-29T05:21:29.104Z,1.70
2017-12-29T05:23:56.034Z,1.90
2017-12-29T05:26:22.993Z,1.90
2017-12-29T05:28:49.928Z,1.90
2017-12-29T05:31:16.855Z,2.10
2017-12-29T05:33:43.791Z,2.10
2017-12-29T05:36:10.672Z,2.10
2017-12-29T05:38:38.527Z,2.20
2017-12-29T05:41:05.378Z,2.30
2017-12-29T05:43:32.323Z,2.30
2017-12-29T05:45:59.203Z,2.30
2017-12-29T05:48:26.128Z,2.40
2017-12-29T05:50:53.035Z,2.50
2017-12-29T05:53:19.979Z,2.50
2017-12-29T05:55:46.831Z,2.60
2017-12-29T05:58:13.766Z,2.60
2017-12-29T06:00:40.749Z,2.60
2017-12-29T06:03:07.632Z,2.70
2017-12-29T06:05:35.339Z,2.70
2017-12-29T06:08:02.271Z,2.70
2017-12-29T06:10:29.211Z,2.70
2017-12-29T06:12:56.142Z,2.80
2017-12-29T06:15:23.736Z,3.00
2017-12-29T06:17:50.657Z,2.90
2017-12-29T06:20:17.585Z,3.00
2017-12-29T06:22:45.271Z,3.00
2017-12-29T06:25:12.152Z,3.00
2017-12-29T06:27:39.093Z,3.00
2017-12-29T06:30:06.044Z,3.00
2017-12-29T06:32:32.954Z,3.00
2017-12-29T06:34:59.901Z,3.00
2017-12-29T06:37:26.778Z,2.90
2017-12-29T06:39:53.655Z,2.90
2017-12-29T06:42:20.595Z,2.90
2017-12-29T06:44:47.510Z,2.90
2017-12-29T06:47:14.547Z,2.90
2017-12-29T06:49:41.508Z,3.00
2017-12-29T06:52:20.145Z,3.00
2017-12-29T06:54:50.868Z,3.10
2017-12-29T06:57:17.795Z,3.10
2017-12-29T06:59:44.891Z,3.20
2017-12-29T07:02:11.763Z,3.20
2017-12-29T07:04:39.651Z,3.20
2017-12-29T07:07:06.594Z,3.20
2017-12-29T07:09:33.528Z,3.10
2017-12-29T07:12:00.394Z,3.30
2017-12-29T07:14:27.357Z,3.20
2017-12-29T07:16:54.443Z,3.10
2017-12-29T07:19:28.268Z,3.20
2017-12-29T07:21:55.855Z,3.30
2017-12-29T07:24:27.723Z,3.30
2017-12-29T07:27:06.800Z,3.30
2017-12-29T07:29:34.066Z,3.30
2017-12-29T07:32:01.573Z,3.40
2017-12-29T07:34:28.507Z,3.40
2017-12-29T07:36:55.359Z,3.50
2017-12-29T07:39:22.388Z,3.50
2017-12-29T07:41:49.342Z,3.40
2017-12-29T07:44:16.273Z,3.40
2017-12-29T07:46:43.136Z,3.40
2017-12-29T07:49:10.014Z,3.30
2017-12-29T07:51:36.958Z,3.50
2017-12-29T07:54:03.826Z,3.40
2017-12-29T07:56:30.756Z,3.50
2017-12-29T07:58:57.638Z,3.40
2017-12-29T08:01:25.343Z,3.40
2017-12-29T08:03:52.214Z,3.40
2017-12-29T08:06:19.214Z,3.40
2017-12-29T08:08:46.209Z,3.40
2017-12-29T08:11:13.931Z,3.60
2017-12-29T08:13:40.863Z,3.60
2017-12-29T08:16:07.715Z,3.60
2017-12-29T08:18:34.647Z,3.70
2017-12-29T08:21:04.754Z,3.60
2017-12-29T08:23:34.290Z,3.60
2017-12-29T08:26:03.094Z,3.60
2017-12-29T08:28:30.016Z,3.60
2017-12-29T08:30:56.896Z,3.60
2017-12-29T08:33:27.867Z,3.60
2017-12-29T08:35:55.425Z,3.50
2017-12-29T08:38:22.448Z,3.50
2017-12-29T08:40:49.447Z,3.50
2017-12-29T08:43:24.082Z,3.30
2017-12-29T08:45:59.115Z,3.60
2017-12-29T08:48:32.810Z,3.60
2017-12-29T08:51:01.982Z,3.60
2017-12-29T08:53:30.918Z,3.50
2017-12-29T08:55:57.911Z,3.50
2017-12-29T08:58:27.058Z,3.40
2017-12-29T09:00:54.127Z,3.50
2017-12-29T09:03:22.553Z,3.50
2017-12-29T09:05:50.074Z,3.50
2017-12-29T09:08:22.386Z,3.50
2017-12-29T09:10:50.481Z,3.60
2017-12-29T09:13:28.470Z,3.60
2017-12-29T09:18:49.240Z,3.80
2017-12-29T09:21:20.587Z,3.70
2017-12-29T09:23:52.484Z,3.70
2017-12-29T09:26:22.443Z,3.70
2017-12-29T09:28:49.381Z,3.70
2017-12-29T09:31:29.560Z,3.80
2017-12-29T09:34:03.776Z,3.70
2017-12-29T09:36:32.724Z,3.80
2017-12-29T09:39:01.831Z,3.60
2017-12-29T09:41:29.608Z,3.60
2017-12-29T09:43:57.231Z,3.60
2017-12-29T09:46:24.190Z,3.50
2017-12-29T09:48:52.192Z,3.60
2017-12-29T09:51:29.270Z,3.50
2017-12-29T09:53:56.908Z,3.50
2017-12-29T09:56:23.983Z,3.50
2017-12-29T09:58:51.626Z,3.90
2017-12-29T10:01:18.889Z,3.90
2017-12-29T10:03:49.573Z,4.00
2017-12-29T10:06:29.115Z,4.30
2017-12-29T10:09:00.604Z,4.30
2017-12-29T10:11:28.889Z,4.50
2017-12-29T10:13:56.937Z,4.40
2017-12-29T10:16:23.907Z,4.60
2017-12-29T10:18:50.851Z,4.70
2017-12-29T10:21:17.729Z,4.90
2017-12-29T10:23:59.992Z,4.90
2017-12-29T10:26:35.555Z,4.80
2017-12-29T10:29:09.620Z,4.70
2017-12-29T10:31:43.543Z,4.70
2017-12-29T10:34:10.544Z,5.00
2017-12-29T10:36:44.275Z,5.10
2017-12-29T10:39:21.278Z,5.10
2017-12-29T10:42:01.337Z,5.10
2017-12-29T10:44:38.633Z,5.10
2017-12-29T10:47:15.294Z,5.10
2017-12-29T10:49:55.679Z,5.00
2017-12-29T10:52:33.192Z,5.10
2017-12-29T10:55:11.236Z,5.10
2017-12-29T10:57:50.223Z,5.00
2017-12-29T11:00:30.443Z,5.00
2017-12-29T11:03:09.341Z,4.90
2017-12-29T11:05:49.321Z,5.00
2017-12-29T11:08:25.900Z,5.20
2017-12-29T11:11:02.237Z,5.40
2017-12-29T11:13:38.245Z,5.40
2017-12-29T11:16:05.132Z,5.30
2017-12-29T11:18:32.158Z,5.40
2017-12-29T11:21:03.558Z,5.40
2017-12-29T11:23:31.015Z,5.20
2017-12-29T11:26:03.444Z,5.00
2017-12-29T11:28:32.735Z,5.30
2017-12-29T11:31:05.736Z,5.40
2017-12-29T11:33:35.232Z,5.80
2017-12-29T11:38:41.425Z,5.90
2017-12-29T11:41:10.098Z,5.70
2017-12-29T11:43:38.502Z,5.70
2017-12-29T11:46:05.452Z,5.90
2017-12-29T11:48:45.881Z,5.70
2017-12-29T11:51:27.243Z,5.90
2017-12-29T11:53:54.876Z,6.10
2017-12-29T11:56:21.829Z,5.80
2017-12-29T11:58:48.755Z,5.90
2017-12-29T12:01:17.231Z,6.00
2017-12-29T12:03:50.013Z,6.00
2017-12-29T12:06:20.301Z,5.90
2017-12-29T12:08:47.307Z,5.80
2017-12-29T12:11:14.163Z,5.80
2017-12-29T12:13:41.023Z,5.40
2017-12-29T12:16:08.318Z,5.40
2017-12-29T12:18:35.207Z,5.30
2017-12-29T12:21:06.126Z,5.10
2017-12-29T12:23:33.099Z,4.90
2017-12-29T12:26:00.044Z,5.00
2017-12-29T12:28:26.939Z,5.00
2017-12-29T12:30:55.558Z,4.90
2017-12-29T12:33:23.224Z,4.90
2017-12-29T12:35:50.948Z,4.90
2017-12-29T12:38:17.886Z,5.00
2017-12-29T12:40:45.582Z,5.10
2017-12-29T12:43:12.497Z,5.10
2017-12-29T12:45:40.276Z,5.40
2017-12-29T12:48:17.113Z,5.40
2017-12-29T12:50:58.852Z,5.40
2017-12-29T12:53:39.589Z,5.30
2017-12-29T12:56:19.538Z,5.30
2017-12-29T13:01:42.432Z,5.40
2017-12-29T13:04:11.158Z,5.40
2017-12-29T13:06:38.012Z,5.40
2017-12-29T13:09:18.530Z,5.40
2017-12-29T13:11:57.491Z,5.30
2017-12-29T13:14:33.269Z,5.40
2017-12-29T13:17:02.164Z,5.40
2017-12-29T13:19:29.627Z,5.40
2017-12-29T13:21:56.663Z,5.30
2017-12-29T13:24:23.710Z,5.30
2017-12-29T13:26:50.705Z,5.20
2017-12-29T13:29:17.770Z,5.10
2017-12-29T13:31:44.859Z,5.20
2017-12-29T13:34:12.437Z,5.20
2017-12-29T13:36:39.338Z,5.30
2017-12-29T13:39:09.365Z,5.30
2017-12-29T13:41:39.770Z,5.30
2017-12-29T13:44:07.122Z,5.30
2017-12-29T13:46:34.811Z,5.30
2017-12-29T13:49:01.771Z,5.30
2017-12-29T13:51:28.728Z,5.40
2017-12-29T13:53:56.403Z,5.30
2017-12-29T13:56:23.269Z,5.30
2017-12-29T13:58:50.217Z,5.20
2017-12-29T14:01:17.092Z,5.20
2017-12-29T14:03:45.027Z,5.10
2017-12-29T14:06:12.071Z,5.10
2017-12-29T14:08:38.922Z,5.20
2017-12-29T14:11:19.697Z,5.00
2017-12-29T14:14:00.976Z,5.00
2017-12-29T14:16:41.824Z,4.80
2017-12-29T14:19:22.516Z,4.90
2017-12-29T14:21:53.613Z,4.90
2017-12-29T14:24:21.414Z,4.90
2017-12-29T14:27:02.827Z,4.90
2017-12-29T14:29:38.365Z,5.00
2017-12-29T14:32:05.374Z,5.00
2017-12-29T14:34:32.256Z,4.80
2017-12-29T14:37:13.219Z,5.00
2017-12-29T14:39:45.155Z,5.00
2017-12-29T14:42:12.103Z,4.90
2017-12-29T14:44:43.035Z,4.80
2017-12-29T14:47:10.393Z,4.70
2017-12-29T14:49:37.297Z,4.70
2017-12-29T14:52:17.140Z,4.60
2017-12-29T14:54:44.963Z,4.80
2017-12-29T14:57:24.628Z,4.80
2017-12-29T14:59:52.259Z,4.80
2017-12-29T15:02:19.159Z,4.80
2017-12-29T15:04:46.868Z,4.90
2017-12-29T15:07:14.015Z,4.80
2017-12-29T15:09:40.962Z,4.90
2017-12-29T15:12:11.129Z,5.00
2017-12-29T15:14:38.014Z,5.00
2017-12-29T15:17:07.539Z,4.90
2017-12-29T15:19:34.416Z,4.80
2017-12-29T15:22:04.079Z,4.70
2017-12-29T15:24:31.817Z,4.80
2017-12-29T15:26:59.439Z,4.80
2017-12-29T15:29:26.375Z,4.80
2017-12-29T15:31:53.299Z,4.70
2017-12-29T15:34:20.335Z,4.60
2017-12-29T15:36:54.852Z,4.70
2017-12-29T15:39:23.263Z,4.60
2017-12-29T15:41:55.375Z,4.60
2017-12-29T15:44:23.039Z,4.50
2017-12-29T15:46:50.081Z,4.50
2017-12-29T15:49:16.963Z,4.50
2017-12-29T15:51:44.608Z,4.30
2017-12-29T15:54:24.498Z,4.40
2017-12-29T15:56:52.163Z,4.30
2017-12-29T15:59:19.107Z,4.20
2017-12-29T16:01:48.875Z,4.10
2017-12-29T16:04:15.872Z,4.00
2017-12-29T16:06:42.746Z,3.90
2017-12-29T16:09:09.799Z,3.90
2017-12-29T16:11:36.693Z,3.70
2017-12-29T16:14:10.824Z,3.70
2017-12-29T16:16:37.972Z,3.60
2017-12-29T16:19:04.815Z,3.40
2017-12-29T16:21:31.718Z,3.50
2017-12-29T16:23:58.640Z,3.50
2017-12-29T16:26:25.578Z,3.30
2017-12-29T16:28:52.447Z,3.20
2017-12-29T16:31:19.295Z,3.00
2017-12-29T16:33:52.591Z,3.00
2017-12-29T16:36:19.533Z,2.90
2017-12-29T16:38:46.398Z,2.80
2017-12-29T16:41:13.329Z,2.80
2017-12-29T16:43:42.016Z,2.80
2017-12-29T16:46:08.865Z,2.90
2017-12-29T16:48:36.544Z,2.90
2017-12-29T16:51:03.440Z,2.90
2017-12-29T16:53:33.663Z,2.80
2017-12-29T16:56:00.553Z,3.00
2017-12-29T16:58:29.876Z,3.00
2017-12-29T17:00:59.459Z,2.80
2017-12-29T17:03:27.195Z,2.80
2017-12-29T17:05:54.079Z,2.80
2017-12-29T17:08:23.976Z,2.70
2017-12-29T17:10:58.400Z,2.80
2017-12-29T17:13:26.194Z,2.80
2017-12-29T17:15:53.054Z,2.70
2017-12-29T17:18:19.991Z,2.90
2017-12-29T17:20:48.511Z,2.90
2017-12-29T17:23:15.462Z,2.90
2017-12-29T17:25:54.203Z,2.90
2017-12-29T17:28:30.562Z,3.00
2017-12-29T17:30:57.427Z,3.10
2017-12-29T17:33:25.124Z,3.00
2017-12-29T17:35:52.069Z,2.90
2017-12-29T17:38:19.089Z,3.00
2017-12-29T17:40:46.777Z,2.90
2017-12-29T17:43:13.640Z,2.80
2017-12-29T17:45:40.578Z,2.90
2017-12-29T17:48:07.452Z,2.80
2017-12-29T17:50:34.412Z,2.90
2017-12-29T17:53:01.284Z,2.90
2017-12-29T17:55:30.044Z,3.00
2017-12-29T17:57:56.979Z,2.90
2017-12-29T18:00:23.861Z,3.00
2017-12-29T18:02:51.532Z,3.00
2017-12-29T18:05:18.414Z,3.00
2017-12-29T18:07:45.335Z,3.00
2017-12-29T18:10:12.295Z,3.00
2017-12-29T18:12:39.168Z,3.10
2017-12-29T18:15:06.061Z,3.00
2017-12-29T18:17:34.038Z,3.00
2017-12-29T18:20:01.260Z,3.00
2017-12-29T18:22:29.160Z,2.90
2017-12-29T18:24:57.128Z,2.90
2017-12-29T18:27:24.092Z,3.00
2017-12-29T18:29:50.957Z,2.90
2017-12-29T18:32:17.856Z,2.90
2017-12-29T18:34:45.558Z,2.90
2017-12-29T18:37:12.516Z,2.90
2017-12-29T18:39:47.808Z,2.90
2017-12-29T18:42:15.420Z,2.90
2017-12-29T18:44:42.360Z,2.90
2017-12-29T18:47:09.223Z,2.90
2017-12-29T18:49:36.093Z,3.00
2017-12-29T18:52:03.775Z,2.90
2017-12-29T18:54:30.629Z,2.90
2017-12-29T18:56:57.568Z,3.00
2017-12-29T18:59:24.450Z,3.00
2017-12-29T19:01:51.304Z,3.20
2017-12-29T19:04:18.271Z,3.30
2017-12-29T19:06:45.132Z,3.30
2017-12-29T19:09:12.826Z,3.30
2017-12-29T19:11:39.717Z,3.30
2017-12-29T19:14:06.621Z,3.30
2017-12-29T19:16:33.560Z,3.40
2017-12-29T19:19:00.431Z,3.30
2017-12-29T19:21:27.417Z,3.40
2017-12-29T19:23:55.082Z,3.40
2017-12-29T19:26:23.251Z,3.40
2017-12-29T19:28:50.924Z,3.40
2017-12-29T19:31:17.767Z,3.40
2017-12-29T19:33:59.931Z,3.40
2017-12-29T19:36:43.288Z,3.40
2017-12-29T19:39:10.975Z,3.30
2017-12-29T19:41:41.052Z,3.40
2017-12-29T19:44:08.271Z,3.30
2017-12-29T19:46:35.223Z,3.30
2017-12-29T19:49:02.085Z,3.20
2017-12-29T19:51:28.999Z,3.20
2017-12-29T19:53:56.000Z,3.30
2017-12-29T19:56:22.875Z,3.30
2017-12-29T19:58:49.835Z,3.30
2017-12-29T20:01:19.472Z,3.20
2017-12-29T20:03:47.074Z,3.30
2017-12-29T20:06:16.335Z,3.30
2017-12-29T20:08:43.311Z,3.30
2017-12-29T20:11:10.736Z,3.20
2017-12-29T20:13:40.533Z,3.40
2017-12-29T20:16:08.520Z,3.40
2017-12-29T20:18:35.431Z,3.40
2017-12-29T20:21:02.370Z,3.40
2017-12-29T20:23:30.034Z,3.40
2017-12-29T20:25:56.964Z,3.40
2017-12-29T20:28:26.724Z,3.50
2017-12-29T20:30:53.588Z,3.50
2017-12-29T20:33:25.668Z,3.40
2017-12-29T20:35:52.532Z,3.50
2017-12-29T20:38:19.535Z,3.40
2017-12-29T20:40:53.030Z,3.40
2017-12-29T20:43:19.919Z,3.40
2017-12-29T20:45:46.785Z,3.20
2017-12-29T20:48:13.730Z,3.30
2017-12-29T20:50:41.328Z,3.20
2017-12-29T20:53:08.279Z,3.10
2017-12-29T20:55:35.148Z,3.10
2017-12-29T20:58:02.859Z,3.00
2017-12-29T21:00:29.750Z,3.00
2017-12-29T21:02:58.675Z,3.00
2017-12-29T21:05:26.422Z,2.90
2017-12-29T21:07:57.960Z,2.80
2017-12-29T21:10:24.820Z,2.80
2017-12-29T21:12:57.044Z,2.90
2017-12-29T21:15:24.983Z,3.10
2017-12-29T21:17:52.604Z,3.00
2017-12-29T21:20:20.367Z,3.00
2017-12-29T21:22:47.251Z,3.10
2017-12-29T21:25:19.973Z,3.10
2017-12-29T21:27:52.183Z,3.10
2017-12-29T21:30:21.022Z,3.10
2017-12-29T21:32:47.961Z,3.20
2017-12-29T21:35:14.894Z,3.00
2017-12-29T21:37:54.371Z,2.80
2017-12-29T21:40:33.005Z,2.80
2017-12-29T21:43:14.027Z,2.90
2017-12-29T21:45:51.359Z,2.90
2017-12-29T21:48:18.988Z,3.00
2017-12-29T21:50:46.004Z,3.00
2017-12-29T21:53:25.544Z,3.00
2017-12-29T21:56:07.402Z,2.90
2017-12-29T21:58:51.761Z,3.00
2017-12-29T22:01:33.953Z,2.90
2017-12-29T22:04:15.339Z,2.90
2017-12-29T22:06:58.182Z,3.00
2017-12-29T22:09:40.120Z,2.90
2017-12-29T22:12:22.820Z,2.90
2017-12-29T22:17:47.125Z,3.00
2017-12-29T22:20:28.881Z,3.10
2017-12-29T22:23:11.708Z,2.80
2017-12-29T22:25:55.080Z,2.80
2017-12-29T22:28:38.685Z,2.90
2017-12-29T22:31:20.590Z,2.90
2017-12-29T22:34:02.824Z,2.90
2017-12-29T22:36:44.600Z,2.90
2017-12-29T22:39:27.890Z,3.00
2017-12-29T22:42:09.195Z,2.90
2017-12-29T22:44:52.136Z,3.00
2017-12-29T22:47:34.268Z,3.10
2017-12-29T22:50:15.967Z,3.20
2017-12-29T22:55:42.261Z,3.40
2017-12-29T22:58:23.888Z,3.30
2017-12-29T23:01:05.771Z,3.40
2017-12-29T23:03:48.434Z,3.40
2017-12-29T23:06:33.269Z,3.40
2017-12-29T23:09:15.367Z,3.40
2017-12-29T23:11:56.169Z,3.40
2017-12-29T23:17:22.067Z,3.50
2017-12-29T23:20:00.880Z,3.50
2017-12-29T23:22:43.697Z,3.60
2017-12-29T23:25:25.584Z,3.60
2017-12-29T23:28:07.301Z,3.60
2017-12-29T23:30:47.190Z,3.60
2017-12-29T23:33:29.276Z,3.50
2017-12-29T23:36:09.260Z,3.50
2017-12-29T23:41:37.028Z,3.50
2017-12-29T23:44:19.586Z,3.40
2017-12-29T23:47:03.422Z,3.40
2017-12-29T23:49:43.975Z,3.20
2017-12-29T23:52:26.113Z,3.20
2017-12-29T23:55:07.408Z,3.40
2017-12-29T23:57:50.303Z,3.30
